sensor_id;sensor_type;location;lat;lon;timestamp;temperature;humidity
2112;DHT22;1062;52.538;13.400;2022-08-19T00:00:24;20.50;99.90
2112;DHT22;1062;52.538;13.400;2022-08-19T00:02:51;20.50;99.90
2112;DHT22;1062;52.538;13.400;2022-08-19T00:05:17;20.50;99.90
2112;DHT22;1062;52.538;13.400;2022-08-19T00:07:44;20.50;99.90
2112;DHT22;1062;52.538;13.400;2022-08-19T00:10:11;20.50;99.90
2112;DHT22;1062;52.538;13.400;2022-08-19T00:12:37;20.50;99.90
2112;DHT22;1062;52.538;13.400;2022-08-19T00:15:09;20.50;99.90
2112;DHT22;1062;52.538;13.400;2022-08-19T00:17:40;20.50;99.90
2112;DHT22;1062;52.538;13.400;2022-08-19T00:20:07;20.50;99.90
2112;DHT22;1062;52.538;13.400;2022-08-19T00:22:33;20.50;99.90
2112;DHT22;1062;52.538;13.400;2022-08-19T00:24:58;20.50;99.90
2112;DHT22;1062;52.538;13.400;2022-08-19T00:27:24;20.50;99.90
2112;DHT22;1062;52.538;13.400;2022-08-19T00:29:49;20.50;99.90
2112;DHT22;1062;52.538;13.400;2022-08-19T00:32:15;20.50;99.90
2112;DHT22;1062;52.538;13.400;2022-08-19T00:34:41;20.50;99.90
2112;DHT22;1062;52.538;13.400;2022-08-19T00:37:07;20.50;99.90
2112;DHT22;1062;52.538;13.400;2022-08-19T00:39:32;20.50;99.90
2112;DHT22;1062;52.538;13.400;2022-08-19T00:41:58;20.50;99.90
2112;DHT22;1062;52.538;13.400;2022-08-19T00:44:28;20.50;99.90
2112;DHT22;1062;52.538;13.400;2022-08-19T00:46:56;20.50;99.90
2112;DHT22;1062;52.538;13.400;2022-08-19T00:50:09;20.50;99.90
2112;DHT22;1062;52.538;13.400;2022-08-19T00:52:27;20.50;99.90
2112;DHT22;1062;52.538;13.400;2022-08-19T00:54:57;20.40;99.90
2112;DHT22;1062;52.538;13.400;2022-08-19T00:57:30;20.40;99.90
2112;DHT22;1062;52.538;13.400;2022-08-19T00:59:58;20.50;99.90
2112;DHT22;1062;52.538;13.400;2022-08-19T01:02:25;20.50;99.90
2112;DHT22;1062;52.538;13.400;2022-08-19T01:04:51;20.50;99.90
2112;DHT22;1062;52.538;13.400;2022-08-19T01:07:17;20.40;99.90
2112;DHT22;1062;52.538;13.400;2022-08-19T01:09:43;20.40;99.90
2112;DHT22;1062;52.538;13.400;2022-08-19T01:12:09;20.40;99.90
2112;DHT22;1062;52.538;13.400;2022-08-19T01:14:36;20.40;99.90
2112;DHT22;1062;52.538;13.400;2022-08-19T01:17:04;20.30;99.90
2112;DHT22;1062;52.538;13.400;2022-08-19T01:19:35;20.30;99.90
2112;DHT22;1062;52.538;13.400;2022-08-19T01:22:11;20.30;99.90
2112;DHT22;1062;52.538;13.400;2022-08-19T01:24:37;20.20;99.90
2112;DHT22;1062;52.538;13.400;2022-08-19T01:27:06;20.20;99.90
2112;DHT22;1062;52.538;13.400;2022-08-19T01:29:32;20.20;99.90
2112;DHT22;1062;52.538;13.400;2022-08-19T01:31:59;20.20;99.90
2112;DHT22;1062;52.538;13.400;2022-08-19T01:34:25;20.20;99.90
2112;DHT22;1062;52.538;13.400;2022-08-19T01:36:51;20.20;99.90
2112;DHT22;1062;52.538;13.400;2022-08-19T01:39:23;20.20;99.90
2112;DHT22;1062;52.538;13.400;2022-08-19T01:41:49;20.20;99.90
2112;DHT22;1062;52.538;13.400;2022-08-19T01:44:16;20.20;99.90
2112;DHT22;1062;52.538;13.400;2022-08-19T01:46:43;20.20;99.90
2112;DHT22;1062;52.538;13.400;2022-08-19T01:49:09;20.20;99.90
2112;DHT22;1062;52.538;13.400;2022-08-19T01:51:35;20.20;99.90
2112;DHT22;1062;52.538;13.400;2022-08-19T01:54:01;20.30;99.90
2112;DHT22;1062;52.538;13.400;2022-08-19T01:56:27;20.30;99.90
2112;DHT22;1062;52.538;13.400;2022-08-19T01:59:00;20.20;99.90
2112;DHT22;1062;52.538;13.400;2022-08-19T02:01:26;20.20;99.90
2112;DHT22;1062;52.538;13.400;2022-08-19T02:03:52;20.20;99.90
2112;DHT22;1062;52.538;13.400;2022-08-19T02:06:18;20.20;99.90
2112;DHT22;1062;52.538;13.400;2022-08-19T02:08:44;20.20;99.90
2112;DHT22;1062;52.538;13.400;2022-08-19T02:11:26;20.20;99.90
2112;DHT22;1062;52.538;13.400;2022-08-19T02:13:53;20.20;99.90
2112;DHT22;1062;52.538;13.400;2022-08-19T02:16:19;20.20;99.90
2112;DHT22;1062;52.538;13.400;2022-08-19T02:18:46;20.20;99.90
2112;DHT22;1062;52.538;13.400;2022-08-19T02:21:14;20.10;99.90
2112;DHT22;1062;52.538;13.400;2022-08-19T02:23:41;20.00;99.90
2112;DHT22;1062;52.538;13.400;2022-08-19T02:26:07;20.00;99.90
2112;DHT22;1062;52.538;13.400;2022-08-19T02:28:32;20.00;99.90
2112;DHT22;1062;52.538;13.400;2022-08-19T02:30:59;20.00;99.90
2112;DHT22;1062;52.538;13.400;2022-08-19T02:33:26;20.00;99.90
2112;DHT22;1062;52.538;13.400;2022-08-19T02:35:51;19.90;99.90
2112;DHT22;1062;52.538;13.400;2022-08-19T02:38:17;19.90;99.90
2112;DHT22;1062;52.538;13.400;2022-08-19T02:41:00;19.90;99.90
2112;DHT22;1062;52.538;13.400;2022-08-19T02:43:28;19.90;99.90
2112;DHT22;1062;52.538;13.400;2022-08-19T02:45:53;19.90;99.90
2112;DHT22;1062;52.538;13.400;2022-08-19T02:48:21;19.90;99.90
2112;DHT22;1062;52.538;13.400;2022-08-19T02:50:49;19.90;99.90
2112;DHT22;1062;52.538;13.400;2022-08-19T02:53:25;19.90;99.90
2112;DHT22;1062;52.538;13.400;2022-08-19T02:55:51;19.90;99.90
2112;DHT22;1062;52.538;13.400;2022-08-19T02:58:18;19.90;99.90
2112;DHT22;1062;52.538;13.400;2022-08-19T03:00:47;19.90;99.90
2112;DHT22;1062;52.538;13.400;2022-08-19T03:03:13;19.90;99.90
2112;DHT22;1062;52.538;13.400;2022-08-19T03:05:40;19.80;99.90
2112;DHT22;1062;52.538;13.400;2022-08-19T03:08:05;19.80;99.90
2112;DHT22;1062;52.538;13.400;2022-08-19T03:10:32;19.80;99.90
2112;DHT22;1062;52.538;13.400;2022-08-19T03:12:58;19.80;99.90
2112;DHT22;1062;52.538;13.400;2022-08-19T03:15:23;19.80;99.90
2112;DHT22;1062;52.538;13.400;2022-08-19T03:17:49;19.80;99.90
2112;DHT22;1062;52.538;13.400;2022-08-19T03:20:15;19.80;99.90
2112;DHT22;1062;52.538;13.400;2022-08-19T03:22:40;19.70;99.90
2112;DHT22;1062;52.538;13.400;2022-08-19T03:25:06;19.70;99.90
2112;DHT22;1062;52.538;13.400;2022-08-19T03:27:32;19.70;99.90
2112;DHT22;1062;52.538;13.400;2022-08-19T03:29:57;19.70;99.90
2112;DHT22;1062;52.538;13.400;2022-08-19T03:32:23;19.70;99.90
2112;DHT22;1062;52.538;13.400;2022-08-19T03:34:49;19.70;99.90
2112;DHT22;1062;52.538;13.400;2022-08-19T03:37:16;19.70;99.90
2112;DHT22;1062;52.538;13.400;2022-08-19T03:39:41;19.70;99.90
2112;DHT22;1062;52.538;13.400;2022-08-19T03:42:08;19.70;99.90
2112;DHT22;1062;52.538;13.400;2022-08-19T03:44:33;19.70;99.90
2112;DHT22;1062;52.538;13.400;2022-08-19T03:47:01;19.70;99.90
2112;DHT22;1062;52.538;13.400;2022-08-19T03:49:29;19.60;99.90
2112;DHT22;1062;52.538;13.400;2022-08-19T03:51:57;19.60;99.90
2112;DHT22;1062;52.538;13.400;2022-08-19T03:54:25;19.60;99.90
2112;DHT22;1062;52.538;13.400;2022-08-19T03:56:52;19.70;99.90
2112;DHT22;1062;52.538;13.400;2022-08-19T03:59:27;19.60;99.90
2112;DHT22;1062;52.538;13.400;2022-08-19T04:01:55;19.60;99.90
2112;DHT22;1062;52.538;13.400;2022-08-19T04:04:22;19.60;99.90
2112;DHT22;1062;52.538;13.400;2022-08-19T04:06:48;19.60;99.90
2112;DHT22;1062;52.538;13.400;2022-08-19T04:09:14;19.60;99.90
2112;DHT22;1062;52.538;13.400;2022-08-19T04:11:46;19.60;99.90
2112;DHT22;1062;52.538;13.400;2022-08-19T04:14:17;19.70;99.90
2112;DHT22;1062;52.538;13.400;2022-08-19T04:16:44;19.70;99.90
2112;DHT22;1062;52.538;13.400;2022-08-19T04:19:10;19.70;99.90
2112;DHT22;1062;52.538;13.400;2022-08-19T04:21:36;19.70;99.90
2112;DHT22;1062;52.538;13.400;2022-08-19T04:24:03;19.70;99.90
2112;DHT22;1062;52.538;13.400;2022-08-19T04:26:33;19.70;99.90
2112;DHT22;1062;52.538;13.400;2022-08-19T04:29:01;19.80;99.90
2112;DHT22;1062;52.538;13.400;2022-08-19T04:31:30;19.80;99.90
2112;DHT22;1062;52.538;13.400;2022-08-19T04:33:59;19.80;99.90
2112;DHT22;1062;52.538;13.400;2022-08-19T04:36:32;19.80;99.90
2112;DHT22;1062;52.538;13.400;2022-08-19T04:39:02;19.90;99.90
2112;DHT22;1062;52.538;13.400;2022-08-19T04:41:29;19.90;99.90
2112;DHT22;1062;52.538;13.400;2022-08-19T04:44:14;19.90;99.90
2112;DHT22;1062;52.538;13.400;2022-08-19T04:46:43;19.90;99.90
2112;DHT22;1062;52.538;13.400;2022-08-19T04:49:09;19.90;99.90
2112;DHT22;1062;52.538;13.400;2022-08-19T04:51:35;19.90;99.90
2112;DHT22;1062;52.538;13.400;2022-08-19T04:54:03;20.00;99.90
2112;DHT22;1062;52.538;13.400;2022-08-19T04:56:28;19.90;99.90
2112;DHT22;1062;52.538;13.400;2022-08-19T04:58:55;20.00;99.90
2112;DHT22;1062;52.538;13.400;2022-08-19T05:01:24;20.00;99.90
2112;DHT22;1062;52.538;13.400;2022-08-19T05:03:51;20.00;99.90
2112;DHT22;1062;52.538;13.400;2022-08-19T05:06:19;20.10;99.90
2112;DHT22;1062;52.538;13.400;2022-08-19T05:08:46;20.10;99.90
2112;DHT22;1062;52.538;13.400;2022-08-19T05:11:24;20.20;99.90
2112;DHT22;1062;52.538;13.400;2022-08-19T05:13:51;20.10;99.90
2112;DHT22;1062;52.538;13.400;2022-08-19T05:16:19;20.10;99.90
2112;DHT22;1062;52.538;13.400;2022-08-19T05:18:46;20.10;99.90
2112;DHT22;1062;52.538;13.400;2022-08-19T05:21:32;20.20;99.90
2112;DHT22;1062;52.538;13.400;2022-08-19T05:24:17;20.30;99.90
2112;DHT22;1062;52.538;13.400;2022-08-19T05:26:45;20.20;99.90
2112;DHT22;1062;52.538;13.400;2022-08-19T05:29:12;20.30;99.90
2112;DHT22;1062;52.538;13.400;2022-08-19T05:31:39;20.50;99.90
2112;DHT22;1062;52.538;13.400;2022-08-19T05:34:05;20.40;99.90
2112;DHT22;1062;52.538;13.400;2022-08-19T05:36:36;20.60;99.90
2112;DHT22;1062;52.538;13.400;2022-08-19T05:39:05;20.70;99.90
2112;DHT22;1062;52.538;13.400;2022-08-19T05:41:31;20.80;99.90
2112;DHT22;1062;52.538;13.400;2022-08-19T05:43:58;21.00;99.90
2112;DHT22;1062;52.538;13.400;2022-08-19T05:46:26;21.10;99.90
2112;DHT22;1062;52.538;13.400;2022-08-19T05:48:51;21.20;99.90
2112;DHT22;1062;52.538;13.400;2022-08-19T05:51:17;21.10;99.90
2112;DHT22;1062;52.538;13.400;2022-08-19T05:53:43;21.00;99.90
2112;DHT22;1062;52.538;13.400;2022-08-19T05:56:12;21.10;99.90
2112;DHT22;1062;52.538;13.400;2022-08-19T05:58:38;21.20;99.90
2112;DHT22;1062;52.538;13.400;2022-08-19T06:01:09;21.50;99.90
2112;DHT22;1062;52.538;13.400;2022-08-19T06:03:36;21.80;99.90
2112;DHT22;1062;52.538;13.400;2022-08-19T06:06:03;21.70;99.90
2112;DHT22;1062;52.538;13.400;2022-08-19T06:08:29;21.90;99.90
2112;DHT22;1062;52.538;13.400;2022-08-19T06:10:55;21.80;99.90
2112;DHT22;1062;52.538;13.400;2022-08-19T06:13:21;21.60;99.90
2112;DHT22;1062;52.538;13.400;2022-08-19T06:15:48;21.60;99.90
2112;DHT22;1062;52.538;13.400;2022-08-19T06:18:14;21.70;99.90
2112;DHT22;1062;52.538;13.400;2022-08-19T06:20:41;21.70;99.90
2112;DHT22;1062;52.538;13.400;2022-08-19T06:23:07;21.60;99.90
2112;DHT22;1062;52.538;13.400;2022-08-19T06:25:34;21.60;99.90
2112;DHT22;1062;52.538;13.400;2022-08-19T06:28:00;21.60;99.90
2112;DHT22;1062;52.538;13.400;2022-08-19T06:30:26;21.60;99.90
2112;DHT22;1062;52.538;13.400;2022-08-19T06:32:52;21.50;99.90
2112;DHT22;1062;52.538;13.400;2022-08-19T06:35:17;21.70;99.90
2112;DHT22;1062;52.538;13.400;2022-08-19T06:37:43;21.70;99.90
2112;DHT22;1062;52.538;13.400;2022-08-19T06:40:10;21.70;99.90
2112;DHT22;1062;52.538;13.400;2022-08-19T06:42:36;21.80;99.90
2112;DHT22;1062;52.538;13.400;2022-08-19T06:45:05;21.90;99.90
2112;DHT22;1062;52.538;13.400;2022-08-19T06:47:31;22.00;99.90
2112;DHT22;1062;52.538;13.400;2022-08-19T06:50:00;22.00;99.90
2112;DHT22;1062;52.538;13.400;2022-08-19T06:52:30;22.00;99.90
2112;DHT22;1062;52.538;13.400;2022-08-19T06:54:56;22.00;99.90
2112;DHT22;1062;52.538;13.400;2022-08-19T06:57:26;22.10;99.90
2112;DHT22;1062;52.538;13.400;2022-08-19T06:59:52;22.20;99.90
2112;DHT22;1062;52.538;13.400;2022-08-19T07:02:19;22.10;99.90
2112;DHT22;1062;52.538;13.400;2022-08-19T07:04:45;22.00;99.90
2112;DHT22;1062;52.538;13.400;2022-08-19T07:07:13;22.00;99.90
2112;DHT22;1062;52.538;13.400;2022-08-19T07:09:42;21.90;99.90
2112;DHT22;1062;52.538;13.400;2022-08-19T07:12:10;21.90;99.90
2112;DHT22;1062;52.538;13.400;2022-08-19T07:14:38;21.80;99.90
2112;DHT22;1062;52.538;13.400;2022-08-19T07:17:06;21.80;99.90
2112;DHT22;1062;52.538;13.400;2022-08-19T07:19:32;21.90;99.90
2112;DHT22;1062;52.538;13.400;2022-08-19T07:22:01;22.00;99.90
2112;DHT22;1062;52.538;13.400;2022-08-19T07:24:27;22.00;99.90
2112;DHT22;1062;52.538;13.400;2022-08-19T07:26:56;22.00;99.90
2112;DHT22;1062;52.538;13.400;2022-08-19T07:29:26;22.00;99.90
2112;DHT22;1062;52.538;13.400;2022-08-19T07:31:53;22.20;99.90
2112;DHT22;1062;52.538;13.400;2022-08-19T07:34:22;22.10;99.90
2112;DHT22;1062;52.538;13.400;2022-08-19T07:36:49;22.10;99.90
2112;DHT22;1062;52.538;13.400;2022-08-19T07:39:25;22.10;99.90
2112;DHT22;1062;52.538;13.400;2022-08-19T07:41:50;22.10;99.90
2112;DHT22;1062;52.538;13.400;2022-08-19T07:44:17;22.20;99.90
2112;DHT22;1062;52.538;13.400;2022-08-19T07:46:47;22.20;99.90
2112;DHT22;1062;52.538;13.400;2022-08-19T07:49:15;22.30;99.90
2112;DHT22;1062;52.538;13.400;2022-08-19T07:52:06;22.20;99.90
2112;DHT22;1062;52.538;13.400;2022-08-19T07:54:34;22.30;99.90
2112;DHT22;1062;52.538;13.400;2022-08-19T07:57:01;22.20;99.90
2112;DHT22;1062;52.538;13.400;2022-08-19T07:59:27;22.20;99.90
2112;DHT22;1062;52.538;13.400;2022-08-19T08:01:57;22.20;99.90
2112;DHT22;1062;52.538;13.400;2022-08-19T08:04:24;22.20;99.90
2112;DHT22;1062;52.538;13.400;2022-08-19T08:07:09;22.20;99.90
2112;DHT22;1062;52.538;13.400;2022-08-19T08:09:53;22.40;99.90
2112;DHT22;1062;52.538;13.400;2022-08-19T08:12:26;22.60;99.90
2112;DHT22;1062;52.538;13.400;2022-08-19T08:14:56;22.60;99.90
2112;DHT22;1062;52.538;13.400;2022-08-19T08:17:25;22.50;99.90
2112;DHT22;1062;52.538;13.400;2022-08-19T08:19:51;22.70;99.90
2112;DHT22;1062;52.538;13.400;2022-08-19T08:22:19;22.70;99.90
2112;DHT22;1062;52.538;13.400;2022-08-19T08:25:13;22.90;99.90
2112;DHT22;1062;52.538;13.400;2022-08-19T08:27:40;22.80;99.90
2112;DHT22;1062;52.538;13.400;2022-08-19T08:30:08;22.50;99.90
2112;DHT22;1062;52.538;13.400;2022-08-19T08:32:36;22.70;99.90
2112;DHT22;1062;52.538;13.400;2022-08-19T08:35:07;22.90;99.90
2112;DHT22;1062;52.538;13.400;2022-08-19T08:37:33;22.90;99.90
2112;DHT22;1062;52.538;13.400;2022-08-19T08:40:03;22.90;99.90
2112;DHT22;1062;52.538;13.400;2022-08-19T08:42:36;22.90;99.90
2112;DHT22;1062;52.538;13.400;2022-08-19T08:45:10;22.70;99.90
2112;DHT22;1062;52.538;13.400;2022-08-19T08:47:43;22.80;99.90
2112;DHT22;1062;52.538;13.400;2022-08-19T08:50:29;22.80;99.90
2112;DHT22;1062;52.538;13.400;2022-08-19T08:52:58;23.10;99.90
2112;DHT22;1062;52.538;13.400;2022-08-19T08:55:27;23.20;99.90
2112;DHT22;1062;52.538;13.400;2022-08-19T08:58:17;23.20;99.90
2112;DHT22;1062;52.538;13.400;2022-08-19T09:00:48;23.00;99.90
2112;DHT22;1062;52.538;13.400;2022-08-19T09:03:21;23.10;99.90
2112;DHT22;1062;52.538;13.400;2022-08-19T09:06:29;23.40;99.90
2112;DHT22;1062;52.538;13.400;2022-08-19T09:09:26;23.30;99.90
2112;DHT22;1062;52.538;13.400;2022-08-19T09:12:30;23.10;99.90
2112;DHT22;1062;52.538;13.400;2022-08-19T09:15:09;23.20;99.90
2112;DHT22;1062;52.538;13.400;2022-08-19T09:17:35;23.00;99.90
2112;DHT22;1062;52.538;13.400;2022-08-19T09:20:13;23.00;99.90
2112;DHT22;1062;52.538;13.400;2022-08-19T09:22:41;23.20;99.90
2112;DHT22;1062;52.538;13.400;2022-08-19T09:25:11;23.20;99.90
2112;DHT22;1062;52.538;13.400;2022-08-19T09:27:39;23.50;99.90
2112;DHT22;1062;52.538;13.400;2022-08-19T09:30:06;23.70;99.90
2112;DHT22;1062;52.538;13.400;2022-08-19T09:32:32;23.90;99.90
2112;DHT22;1062;52.538;13.400;2022-08-19T09:34:58;23.90;99.90
2112;DHT22;1062;52.538;13.400;2022-08-19T09:37:25;24.00;99.90
2112;DHT22;1062;52.538;13.400;2022-08-19T09:39:51;24.00;99.90
2112;DHT22;1062;52.538;13.400;2022-08-19T09:42:18;24.10;99.90
2112;DHT22;1062;52.538;13.400;2022-08-19T09:44:44;24.40;99.90
2112;DHT22;1062;52.538;13.400;2022-08-19T09:47:11;24.30;99.90
2112;DHT22;1062;52.538;13.400;2022-08-19T09:49:38;24.60;99.90
2112;DHT22;1062;52.538;13.400;2022-08-19T09:52:06;24.90;99.90
2112;DHT22;1062;52.538;13.400;2022-08-19T09:54:33;24.80;99.90
2112;DHT22;1062;52.538;13.400;2022-08-19T09:56:59;24.90;99.90
2112;DHT22;1062;52.538;13.400;2022-08-19T09:59:28;24.70;99.90
2112;DHT22;1062;52.538;13.400;2022-08-19T10:01:54;24.60;99.90
2112;DHT22;1062;52.538;13.400;2022-08-19T10:04:20;24.50;99.90
2112;DHT22;1062;52.538;13.400;2022-08-19T10:07:08;24.50;99.90
2112;DHT22;1062;52.538;13.400;2022-08-19T10:09:34;24.70;99.90
2112;DHT22;1062;52.538;13.400;2022-08-19T10:12:01;24.50;99.90
2112;DHT22;1062;52.538;13.400;2022-08-19T10:14:27;24.50;99.90
2112;DHT22;1062;52.538;13.400;2022-08-19T10:16:52;24.50;99.90
2112;DHT22;1062;52.538;13.400;2022-08-19T10:19:18;24.40;99.90
2112;DHT22;1062;52.538;13.400;2022-08-19T10:21:46;24.50;99.90
2112;DHT22;1062;52.538;13.400;2022-08-19T10:24:12;24.30;99.90
2112;DHT22;1062;52.538;13.400;2022-08-19T10:26:39;24.10;99.90
2112;DHT22;1062;52.538;13.400;2022-08-19T10:29:07;24.10;99.90
2112;DHT22;1062;52.538;13.400;2022-08-19T10:31:34;24.00;99.90
2112;DHT22;1062;52.538;13.400;2022-08-19T10:34:00;24.20;99.90
2112;DHT22;1062;52.538;13.400;2022-08-19T10:36:31;23.70;99.90
2112;DHT22;1062;52.538;13.400;2022-08-19T10:38:59;23.60;99.90
2112;DHT22;1062;52.538;13.400;2022-08-19T10:41:30;23.70;99.90
2112;DHT22;1062;52.538;13.400;2022-08-19T10:43:58;23.70;99.90
2112;DHT22;1062;52.538;13.400;2022-08-19T10:46:26;23.70;99.90
2112;DHT22;1062;52.538;13.400;2022-08-19T10:48:53;23.80;99.90
2112;DHT22;1062;52.538;13.400;2022-08-19T10:51:19;24.00;99.90
2112;DHT22;1062;52.538;13.400;2022-08-19T10:54:04;24.20;99.90
2112;DHT22;1062;52.538;13.400;2022-08-19T10:56:30;24.20;99.90
2112;DHT22;1062;52.538;13.400;2022-08-19T10:59:15;24.00;99.90
2112;DHT22;1062;52.538;13.400;2022-08-19T11:01:43;23.80;99.90
2112;DHT22;1062;52.538;13.400;2022-08-19T11:04:08;23.80;99.90
2112;DHT22;1062;52.538;13.400;2022-08-19T11:06:39;23.90;99.90
2112;DHT22;1062;52.538;13.400;2022-08-19T11:09:08;23.80;99.90
2112;DHT22;1062;52.538;13.400;2022-08-19T11:11:34;23.60;99.90
2112;DHT22;1062;52.538;13.400;2022-08-19T11:14:11;23.70;99.90
2112;DHT22;1062;52.538;13.400;2022-08-19T11:16:37;23.70;99.90
2112;DHT22;1062;52.538;13.400;2022-08-19T11:19:05;23.40;99.90
2112;DHT22;1062;52.538;13.400;2022-08-19T11:21:41;23.50;99.90
2112;DHT22;1062;52.538;13.400;2022-08-19T11:24:13;23.50;99.90
2112;DHT22;1062;52.538;13.400;2022-08-19T11:26:42;23.60;99.90
2112;DHT22;1062;52.538;13.400;2022-08-19T11:29:09;23.50;99.90
2112;DHT22;1062;52.538;13.400;2022-08-19T11:31:40;23.40;99.90
2112;DHT22;1062;52.538;13.400;2022-08-19T11:34:08;23.40;99.90
2112;DHT22;1062;52.538;13.400;2022-08-19T11:36:34;23.50;99.90
2112;DHT22;1062;52.538;13.400;2022-08-19T11:39:04;23.50;99.90
2112;DHT22;1062;52.538;13.400;2022-08-19T11:41:29;23.50;99.90
2112;DHT22;1062;52.538;13.400;2022-08-19T11:43:55;23.50;99.90
2112;DHT22;1062;52.538;13.400;2022-08-19T11:46:22;23.40;99.90
2112;DHT22;1062;52.538;13.400;2022-08-19T11:48:49;23.40;99.90
2112;DHT22;1062;52.538;13.400;2022-08-19T11:51:19;23.30;99.90
2112;DHT22;1062;52.538;13.400;2022-08-19T11:53:45;23.30;99.90
2112;DHT22;1062;52.538;13.400;2022-08-19T11:56:12;23.20;99.90
2112;DHT22;1062;52.538;13.400;2022-08-19T11:58:38;23.30;99.90
2112;DHT22;1062;52.538;13.400;2022-08-19T12:01:15;23.40;99.90
2112;DHT22;1062;52.538;13.400;2022-08-19T12:03:42;23.40;99.90
2112;DHT22;1062;52.538;13.400;2022-08-19T12:06:10;23.60;99.90
2112;DHT22;1062;52.538;13.400;2022-08-19T12:08:40;24.00;99.90
2112;DHT22;1062;52.538;13.400;2022-08-19T12:11:06;23.90;99.90
2112;DHT22;1062;52.538;13.400;2022-08-19T12:13:34;24.10;99.90
2112;DHT22;1062;52.538;13.400;2022-08-19T12:16:00;24.10;99.90
2112;DHT22;1062;52.538;13.400;2022-08-19T12:18:32;24.10;99.90
2112;DHT22;1062;52.538;13.400;2022-08-19T12:20:57;24.10;99.90
2112;DHT22;1062;52.538;13.400;2022-08-19T12:23:25;24.20;99.90
2112;DHT22;1062;52.538;13.400;2022-08-19T12:25:51;24.20;99.90
2112;DHT22;1062;52.538;13.400;2022-08-19T12:28:19;24.20;99.90
2112;DHT22;1062;52.538;13.400;2022-08-19T12:30:45;24.10;99.90
2112;DHT22;1062;52.538;13.400;2022-08-19T12:33:11;24.40;99.90
2112;DHT22;1062;52.538;13.400;2022-08-19T12:35:43;24.30;99.90
2112;DHT22;1062;52.538;13.400;2022-08-19T12:38:10;24.80;99.90
2112;DHT22;1062;52.538;13.400;2022-08-19T12:40:36;24.90;99.90
2112;DHT22;1062;52.538;13.400;2022-08-19T12:43:02;24.80;99.90
2112;DHT22;1062;52.538;13.400;2022-08-19T12:45:28;24.60;99.90
2112;DHT22;1062;52.538;13.400;2022-08-19T12:47:54;24.70;99.90
2112;DHT22;1062;52.538;13.400;2022-08-19T12:50:19;24.50;99.90
2112;DHT22;1062;52.538;13.400;2022-08-19T12:52:46;24.60;99.90
2112;DHT22;1062;52.538;13.400;2022-08-19T12:55:12;24.60;99.90
2112;DHT22;1062;52.538;13.400;2022-08-19T12:57:38;24.70;99.90
2112;DHT22;1062;52.538;13.400;2022-08-19T13:00:11;24.80;99.90
2112;DHT22;1062;52.538;13.400;2022-08-19T13:02:39;24.80;99.90
2112;DHT22;1062;52.538;13.400;2022-08-19T13:05:08;24.90;99.90
2112;DHT22;1062;52.538;13.400;2022-08-19T13:07:34;24.90;99.90
2112;DHT22;1062;52.538;13.400;2022-08-19T13:10:00;25.30;99.90
2112;DHT22;1062;52.538;13.400;2022-08-19T13:12:26;25.40;99.90
2112;DHT22;1062;52.538;13.400;2022-08-19T13:14:52;25.80;99.90
2112;DHT22;1062;52.538;13.400;2022-08-19T13:17:18;26.00;99.90
2112;DHT22;1062;52.538;13.400;2022-08-19T13:19:44;25.70;99.90
2112;DHT22;1062;52.538;13.400;2022-08-19T13:22:09;25.80;99.90
2112;DHT22;1062;52.538;13.400;2022-08-19T13:24:35;25.70;99.90
2112;DHT22;1062;52.538;13.400;2022-08-19T13:27:02;25.40;99.90
2112;DHT22;1062;52.538;13.400;2022-08-19T13:29:27;25.10;99.90
2112;DHT22;1062;52.538;13.400;2022-08-19T13:32:12;25.30;99.90
2112;DHT22;1062;52.538;13.400;2022-08-19T13:34:56;25.20;99.90
2112;DHT22;1062;52.538;13.400;2022-08-19T13:37:21;25.50;99.90
2112;DHT22;1062;52.538;13.400;2022-08-19T13:40:11;25.80;99.90
2112;DHT22;1062;52.538;13.400;2022-08-19T13:42:39;25.70;99.90
2112;DHT22;1062;52.538;13.400;2022-08-19T13:45:05;25.70;99.90
2112;DHT22;1062;52.538;13.400;2022-08-19T13:47:32;25.50;99.90
2112;DHT22;1062;52.538;13.400;2022-08-19T13:50:00;25.40;99.90
2112;DHT22;1062;52.538;13.400;2022-08-19T13:52:25;25.20;99.90
2112;DHT22;1062;52.538;13.400;2022-08-19T13:54:51;25.20;99.90
2112;DHT22;1062;52.538;13.400;2022-08-19T13:57:16;25.10;99.90
2112;DHT22;1062;52.538;13.400;2022-08-19T13:59:42;25.10;99.90
2112;DHT22;1062;52.538;13.400;2022-08-19T14:02:07;24.80;99.90
2112;DHT22;1062;52.538;13.400;2022-08-19T14:04:33;24.60;99.90
2112;DHT22;1062;52.538;13.400;2022-08-19T14:06:59;24.80;99.90
2112;DHT22;1062;52.538;13.400;2022-08-19T14:09:24;24.90;99.90
2112;DHT22;1062;52.538;13.400;2022-08-19T14:11:50;25.00;99.90
2112;DHT22;1062;52.538;13.400;2022-08-19T14:14:16;25.10;99.90
2112;DHT22;1062;52.538;13.400;2022-08-19T14:16:42;25.20;99.90
2112;DHT22;1062;52.538;13.400;2022-08-19T14:19:08;25.20;99.90
2112;DHT22;1062;52.538;13.400;2022-08-19T14:21:33;25.30;99.90
2112;DHT22;1062;52.538;13.400;2022-08-19T14:23:59;25.50;99.90
2112;DHT22;1062;52.538;13.400;2022-08-19T14:26:25;25.30;99.90
2112;DHT22;1062;52.538;13.400;2022-08-19T14:28:51;25.10;99.90
2112;DHT22;1062;52.538;13.400;2022-08-19T14:31:18;25.30;99.90
2112;DHT22;1062;52.538;13.400;2022-08-19T14:33:47;25.10;99.90
2112;DHT22;1062;52.538;13.400;2022-08-19T14:36:13;25.20;99.90
2112;DHT22;1062;52.538;13.400;2022-08-19T14:38:39;25.10;99.90
2112;DHT22;1062;52.538;13.400;2022-08-19T14:41:07;25.10;99.90
2112;DHT22;1062;52.538;13.400;2022-08-19T14:43:33;24.90;99.90
2112;DHT22;1062;52.538;13.400;2022-08-19T14:45:59;24.50;99.90
2112;DHT22;1062;52.538;13.400;2022-08-19T14:48:25;24.30;99.90
2112;DHT22;1062;52.538;13.400;2022-08-19T14:50:51;24.40;99.90
2112;DHT22;1062;52.538;13.400;2022-08-19T14:53:17;24.30;99.90
2112;DHT22;1062;52.538;13.400;2022-08-19T14:55:44;24.50;99.90
2112;DHT22;1062;52.538;13.400;2022-08-19T14:58:11;24.50;99.90
2112;DHT22;1062;52.538;13.400;2022-08-19T15:00:36;24.30;99.90
2112;DHT22;1062;52.538;13.400;2022-08-19T15:03:02;24.50;99.90
2112;DHT22;1062;52.538;13.400;2022-08-19T15:05:28;24.50;99.90
2112;DHT22;1062;52.538;13.400;2022-08-19T15:07:53;24.30;99.90
2112;DHT22;1062;52.538;13.400;2022-08-19T15:10:22;24.30;99.90
2112;DHT22;1062;52.538;13.400;2022-08-19T15:12:50;24.50;99.90
2112;DHT22;1062;52.538;13.400;2022-08-19T15:15:16;24.50;99.90
2112;DHT22;1062;52.538;13.400;2022-08-19T15:17:45;24.30;99.90
2112;DHT22;1062;52.538;13.400;2022-08-19T15:20:14;24.40;99.90
2112;DHT22;1062;52.538;13.400;2022-08-19T15:22:40;24.40;99.90
2112;DHT22;1062;52.538;13.400;2022-08-19T15:25:09;24.30;99.90
2112;DHT22;1062;52.538;13.400;2022-08-19T15:27:35;24.30;99.90
2112;DHT22;1062;52.538;13.400;2022-08-19T15:30:01;23.90;99.90
2112;DHT22;1062;52.538;13.400;2022-08-19T15:32:27;23.90;99.90
2112;DHT22;1062;52.538;13.400;2022-08-19T15:34:55;23.90;99.90
2112;DHT22;1062;52.538;13.400;2022-08-19T15:37:21;24.00;99.90
2112;DHT22;1062;52.538;13.400;2022-08-19T15:39:48;24.00;99.90
2112;DHT22;1062;52.538;13.400;2022-08-19T15:42:14;24.10;99.90
2112;DHT22;1062;52.538;13.400;2022-08-19T15:44:40;23.90;99.90
2112;DHT22;1062;52.538;13.400;2022-08-19T15:47:05;23.70;99.90
2112;DHT22;1062;52.538;13.400;2022-08-19T15:49:31;23.70;99.90
2112;DHT22;1062;52.538;13.400;2022-08-19T15:51:57;23.70;99.90